sensor_id;sensor_type;location;lat;lon;timestamp;P1;durP1;ratioP1;P2;durP2;ratioP2
34876;SDS011;21086;44.780;17.194;2022-09-09T00:00:21;6.85;;;3.47;;
34876;SDS011;21086;44.780;17.194;2022-09-09T00:03:03;6.57;;;3.83;;
34876;SDS011;21086;44.780;17.194;2022-09-09T00:14:55;6.85;;;3.90;;
34876;SDS011;21086;44.780;17.194;2022-09-09T00:20:00;9.52;;;4.07;;
34876;SDS011;21086;44.780;17.194;2022-09-09T00:22:29;6.60;;;4.20;;
34876;SDS011;21086;44.780;17.194;2022-09-09T00:25:19;10.90;;;4.40;;
34876;SDS011;21086;44.780;17.194;2022-09-09T00:28:25;10.27;;;4.35;;
34876;SDS011;21086;44.780;17.194;2022-09-09T00:30:55;6.65;;;3.88;;
34876;SDS011;21086;44.780;17.194;2022-09-09T00:33:24;8.75;;;3.75;;
34876;SDS011;21086;44.780;17.194;2022-09-09T00:36:01;8.25;;;3.80;;
34876;SDS011;21086;44.780;17.194;2022-09-09T00:38:40;11.70;;;4.70;;
34876;SDS011;21086;44.780;17.194;2022-09-09T00:44:19;7.28;;;3.28;;
34876;SDS011;21086;44.780;17.194;2022-09-09T00:52:47;8.25;;;4.22;;
34876;SDS011;21086;44.780;17.194;2022-09-09T00:58:19;9.43;;;4.57;;
34876;SDS011;21086;44.780;17.194;2022-09-09T01:00:46;8.98;;;4.75;;
34876;SDS011;21086;44.780;17.194;2022-09-09T01:03:30;6.18;;;3.22;;
34876;SDS011;21086;44.780;17.194;2022-09-09T01:22:21;5.95;;;2.22;;
34876;SDS011;21086;44.780;17.194;2022-09-09T01:25:02;6.10;;;2.10;;
34876;SDS011;21086;44.780;17.194;2022-09-09T01:27:40;4.57;;;1.90;;
34876;SDS011;21086;44.780;17.194;2022-09-09T01:30:11;7.43;;;1.83;;
34876;SDS011;21086;44.780;17.194;2022-09-09T01:32:50;3.58;;;1.90;;
34876;SDS011;21086;44.780;17.194;2022-09-09T01:37:57;4.18;;;1.80;;
34876;SDS011;21086;44.780;17.194;2022-09-09T01:40:24;8.00;;;2.80;;
34876;SDS011;21086;44.780;17.194;2022-09-09T01:42:52;5.18;;;2.95;;
34876;SDS011;21086;44.780;17.194;2022-09-09T01:45:20;13.75;;;2.50;;
34876;SDS011;21086;44.780;17.194;2022-09-09T01:47:48;4.70;;;2.10;;
34876;SDS011;21086;44.780;17.194;2022-09-09T01:50:15;9.38;;;2.15;;
34876;SDS011;21086;44.780;17.194;2022-09-09T01:52:43;4.57;;;2.40;;
34876;SDS011;21086;44.780;17.194;2022-09-09T01:55:13;5.90;;;3.33;;
34876;SDS011;21086;44.780;17.194;2022-09-09T01:57:53;4.38;;;2.65;;
34876;SDS011;21086;44.780;17.194;2022-09-09T02:00:31;5.07;;;2.40;;
34876;SDS011;21086;44.780;17.194;2022-09-09T02:03:09;4.28;;;2.35;;
34876;SDS011;21086;44.780;17.194;2022-09-09T02:05:52;1.90;;;1.52;;
34876;SDS011;21086;44.780;17.194;2022-09-09T02:08:47;3.25;;;2.03;;
34876;SDS011;21086;44.780;17.194;2022-09-09T02:11:16;5.03;;;1.88;;
34876;SDS011;21086;44.780;17.194;2022-09-09T02:13:46;6.78;;;2.53;;
34876;SDS011;21086;44.780;17.194;2022-09-09T02:16:21;5.45;;;2.03;;
34876;SDS011;21086;44.780;17.194;2022-09-09T02:18:55;3.28;;;1.48;;
34876;SDS011;21086;44.780;17.194;2022-09-09T02:21:28;4.18;;;1.52;;
34876;SDS011;21086;44.780;17.194;2022-09-09T02:23:57;6.28;;;2.05;;
34876;SDS011;21086;44.780;17.194;2022-09-09T02:26:26;5.40;;;1.60;;
34876;SDS011;21086;44.780;17.194;2022-09-09T02:28:54;6.72;;;2.00;;
34876;SDS011;21086;44.780;17.194;2022-09-09T02:31:24;3.28;;;1.70;;
34876;SDS011;21086;44.780;17.194;2022-09-09T02:33:56;3.05;;;1.88;;
34876;SDS011;21086;44.780;17.194;2022-09-09T02:36:29;4.72;;;2.22;;
34876;SDS011;21086;44.780;17.194;2022-09-09T02:38:59;4.90;;;2.13;;
34876;SDS011;21086;44.780;17.194;2022-09-09T02:41:30;9.13;;;2.53;;
34876;SDS011;21086;44.780;17.194;2022-09-09T02:44:05;4.93;;;2.50;;
34876;SDS011;21086;44.780;17.194;2022-09-09T02:46:44;5.88;;;1.98;;
34876;SDS011;21086;44.780;17.194;2022-09-09T02:52:38;4.13;;;1.58;;
34876;SDS011;21086;44.780;17.194;2022-09-09T02:58:16;2.72;;;1.20;;
34876;SDS011;21086;44.780;17.194;2022-09-09T03:00:48;4.43;;;1.55;;
34876;SDS011;21086;44.780;17.194;2022-09-09T03:03:17;3.72;;;1.40;;
34876;SDS011;21086;44.780;17.194;2022-09-09T03:05:44;4.30;;;1.42;;
34876;SDS011;21086;44.780;17.194;2022-09-09T03:08:12;4.72;;;1.52;;
34876;SDS011;21086;44.780;17.194;2022-09-09T03:10:40;6.53;;;1.35;;
34876;SDS011;21086;44.780;17.194;2022-09-09T03:13:07;5.32;;;1.80;;
34876;SDS011;21086;44.780;17.194;2022-09-09T03:15:34;3.70;;;1.75;;
34876;SDS011;21086;44.780;17.194;2022-09-09T03:18:01;5.68;;;2.00;;
34876;SDS011;21086;44.780;17.194;2022-09-09T03:20:28;3.58;;;1.60;;
34876;SDS011;21086;44.780;17.194;2022-09-09T03:22:58;2.30;;;1.40;;
34876;SDS011;21086;44.780;17.194;2022-09-09T03:25:26;3.50;;;2.03;;
34876;SDS011;21086;44.780;17.194;2022-09-09T03:27:53;4.18;;;1.35;;
34876;SDS011;21086;44.780;17.194;2022-09-09T03:30:21;5.70;;;2.35;;
34876;SDS011;21086;44.780;17.194;2022-09-09T03:32:49;4.35;;;1.85;;
34876;SDS011;21086;44.780;17.194;2022-09-09T03:35:16;2.95;;;1.83;;
34876;SDS011;21086;44.780;17.194;2022-09-09T03:37:43;5.63;;;1.95;;
34876;SDS011;21086;44.780;17.194;2022-09-09T03:40:10;3.50;;;1.70;;
34876;SDS011;21086;44.780;17.194;2022-09-09T03:42:38;4.50;;;2.13;;
34876;SDS011;21086;44.780;17.194;2022-09-09T03:45:05;3.67;;;2.05;;
34876;SDS011;21086;44.780;17.194;2022-09-09T03:47:35;3.13;;;1.60;;
34876;SDS011;21086;44.780;17.194;2022-09-09T03:50:02;3.88;;;1.60;;
34876;SDS011;21086;44.780;17.194;2022-09-09T03:52:38;2.60;;;1.67;;
34876;SDS011;21086;44.780;17.194;2022-09-09T03:55:07;6.35;;;2.00;;
34876;SDS011;21086;44.780;17.194;2022-09-09T03:57:35;2.75;;;1.60;;
34876;SDS011;21086;44.780;17.194;2022-09-09T04:00:03;8.07;;;1.90;;
34876;SDS011;21086;44.780;17.194;2022-09-09T04:02:31;4.07;;;2.10;;
34876;SDS011;21086;44.780;17.194;2022-09-09T04:04:57;1.95;;;1.52;;
34876;SDS011;21086;44.780;17.194;2022-09-09T04:07:25;5.18;;;2.00;;
34876;SDS011;21086;44.780;17.194;2022-09-09T04:09:54;4.22;;;1.63;;
34876;SDS011;21086;44.780;17.194;2022-09-09T04:12:21;4.13;;;1.83;;
34876;SDS011;21086;44.780;17.194;2022-09-09T04:14:48;2.97;;;1.80;;
34876;SDS011;21086;44.780;17.194;2022-09-09T04:17:15;6.38;;;2.03;;
34876;SDS011;21086;44.780;17.194;2022-09-09T04:19:43;10.27;;;2.13;;
34876;SDS011;21086;44.780;17.194;2022-09-09T04:22:10;4.10;;;1.73;;
34876;SDS011;21086;44.780;17.194;2022-09-09T04:24:37;3.92;;;2.45;;
34876;SDS011;21086;44.780;17.194;2022-09-09T04:27:04;3.80;;;1.80;;
34876;SDS011;21086;44.780;17.194;2022-09-09T04:29:31;2.55;;;1.90;;
34876;SDS011;21086;44.780;17.194;2022-09-09T04:31:58;3.63;;;1.90;;
34876;SDS011;21086;44.780;17.194;2022-09-09T04:34:25;6.43;;;2.20;;
34876;SDS011;21086;44.780;17.194;2022-09-09T04:36:51;2.05;;;1.65;;
34876;SDS011;21086;44.780;17.194;2022-09-09T04:39:18;2.60;;;1.80;;
34876;SDS011;21086;44.780;17.194;2022-09-09T04:41:45;4.68;;;2.08;;
34876;SDS011;21086;44.780;17.194;2022-09-09T04:44:13;7.78;;;1.83;;
34876;SDS011;21086;44.780;17.194;2022-09-09T04:46:40;3.65;;;2.25;;
34876;SDS011;21086;44.780;17.194;2022-09-09T04:49:08;3.25;;;1.63;;
34876;SDS011;21086;44.780;17.194;2022-09-09T04:51:40;4.25;;;2.03;;
34876;SDS011;21086;44.780;17.194;2022-09-09T04:54:07;4.00;;;2.00;;
34876;SDS011;21086;44.780;17.194;2022-09-09T04:56:33;3.67;;;2.40;;
34876;SDS011;21086;44.780;17.194;2022-09-09T04:59:01;5.35;;;2.33;;
34876;SDS011;21086;44.780;17.194;2022-09-09T05:01:29;3.25;;;1.90;;
34876;SDS011;21086;44.780;17.194;2022-09-09T05:03:55;4.57;;;1.92;;
34876;SDS011;21086;44.780;17.194;2022-09-09T05:06:22;4.78;;;2.20;;
34876;SDS011;21086;44.780;17.194;2022-09-09T05:08:50;4.10;;;1.95;;
34876;SDS011;21086;44.780;17.194;2022-09-09T05:11:17;3.50;;;2.20;;
34876;SDS011;21086;44.780;17.194;2022-09-09T05:13:46;4.03;;;2.22;;
34876;SDS011;21086;44.780;17.194;2022-09-09T05:16:13;4.85;;;2.38;;
34876;SDS011;21086;44.780;17.194;2022-09-09T05:18:41;5.60;;;2.17;;
34876;SDS011;21086;44.780;17.194;2022-09-09T05:21:09;2.85;;;1.92;;
34876;SDS011;21086;44.780;17.194;2022-09-09T05:23:37;5.00;;;2.10;;
34876;SDS011;21086;44.780;17.194;2022-09-09T05:26:04;3.38;;;2.15;;
34876;SDS011;21086;44.780;17.194;2022-09-09T05:28:33;5.10;;;2.00;;
34876;SDS011;21086;44.780;17.194;2022-09-09T05:31:06;4.00;;;2.78;;
34876;SDS011;21086;44.780;17.194;2022-09-09T05:33:35;4.18;;;2.45;;
34876;SDS011;21086;44.780;17.194;2022-09-09T05:36:06;5.25;;;2.25;;
34876;SDS011;21086;44.780;17.194;2022-09-09T05:38:37;4.78;;;2.30;;
34876;SDS011;21086;44.780;17.194;2022-09-09T05:41:04;4.47;;;3.55;;
34876;SDS011;21086;44.780;17.194;2022-09-09T05:43:31;8.32;;;2.53;;
34876;SDS011;21086;44.780;17.194;2022-09-09T05:46:03;6.60;;;2.83;;
34876;SDS011;21086;44.780;17.194;2022-09-09T05:48:37;6.18;;;2.67;;
34876;SDS011;21086;44.780;17.194;2022-09-09T05:51:09;5.72;;;2.40;;
34876;SDS011;21086;44.780;17.194;2022-09-09T05:53:44;8.07;;;3.05;;
34876;SDS011;21086;44.780;17.194;2022-09-09T05:56:16;4.88;;;2.97;;
34876;SDS011;21086;44.780;17.194;2022-09-09T05:58:45;4.80;;;2.72;;
34876;SDS011;21086;44.780;17.194;2022-09-09T06:01:16;5.97;;;2.88;;
34876;SDS011;21086;44.780;17.194;2022-09-09T06:03:45;7.85;;;3.22;;
34876;SDS011;21086;44.780;17.194;2022-09-09T06:06:15;10.68;;;3.63;;
34876;SDS011;21086;44.780;17.194;2022-09-09T06:08:44;12.55;;;4.30;;
34876;SDS011;21086;44.780;17.194;2022-09-09T06:11:12;8.85;;;3.42;;
34876;SDS011;21086;44.780;17.194;2022-09-09T06:13:41;9.82;;;4.53;;
34876;SDS011;21086;44.780;17.194;2022-09-09T06:16:12;7.85;;;4.05;;
34876;SDS011;21086;44.780;17.194;2022-09-09T06:18:40;8.52;;;4.13;;
34876;SDS011;21086;44.780;17.194;2022-09-09T06:21:13;10.07;;;3.78;;
34876;SDS011;21086;44.780;17.194;2022-09-09T06:23:42;7.93;;;4.22;;
34876;SDS011;21086;44.780;17.194;2022-09-09T06:26:14;9.77;;;4.75;;
34876;SDS011;21086;44.780;17.194;2022-09-09T06:28:46;9.43;;;4.15;;
34876;SDS011;21086;44.780;17.194;2022-09-09T06:31:16;7.97;;;3.42;;
34876;SDS011;21086;44.780;17.194;2022-09-09T06:33:47;6.95;;;3.65;;
34876;SDS011;21086;44.780;17.194;2022-09-09T06:36:22;8.50;;;4.43;;
34876;SDS011;21086;44.780;17.194;2022-09-09T06:38:53;8.40;;;3.40;;
34876;SDS011;21086;44.780;17.194;2022-09-09T06:41:21;11.25;;;3.45;;
34876;SDS011;21086;44.780;17.194;2022-09-09T06:43:49;14.13;;;3.75;;
34876;SDS011;21086;44.780;17.194;2022-09-09T06:46:19;5.72;;;2.50;;
34876;SDS011;21086;44.780;17.194;2022-09-09T06:48:48;4.57;;;2.95;;
34876;SDS011;21086;44.780;17.194;2022-09-09T06:51:16;6.20;;;3.08;;
34876;SDS011;21086;44.780;17.194;2022-09-09T06:53:46;11.02;;;3.20;;
34876;SDS011;21086;44.780;17.194;2022-09-09T06:56:18;7.95;;;3.33;;
34876;SDS011;21086;44.780;17.194;2022-09-09T06:58:47;6.30;;;4.07;;
34876;SDS011;21086;44.780;17.194;2022-09-09T07:01:16;5.20;;;2.13;;
34876;SDS011;21086;44.780;17.194;2022-09-09T07:03:51;7.35;;;2.35;;
34876;SDS011;21086;44.780;17.194;2022-09-09T07:06:24;7.40;;;4.05;;
34876;SDS011;21086;44.780;17.194;2022-09-09T07:08:54;9.48;;;4.85;;
34876;SDS011;21086;44.780;17.194;2022-09-09T07:11:23;14.23;;;5.88;;
34876;SDS011;21086;44.780;17.194;2022-09-09T07:13:56;8.40;;;3.25;;
34876;SDS011;21086;44.780;17.194;2022-09-09T07:16:23;13.30;;;9.05;;
34876;SDS011;21086;44.780;17.194;2022-09-09T07:18:51;11.70;;;8.80;;
34876;SDS011;21086;44.780;17.194;2022-09-09T07:21:18;12.00;;;8.48;;
34876;SDS011;21086;44.780;17.194;2022-09-09T07:23:47;10.10;;;6.45;;
34876;SDS011;21086;44.780;17.194;2022-09-09T07:26:16;16.67;;;10.13;;
34876;SDS011;21086;44.780;17.194;2022-09-09T07:28:45;5.20;;;3.53;;
34876;SDS011;21086;44.780;17.194;2022-09-09T07:31:13;6.82;;;3.88;;
34876;SDS011;21086;44.780;17.194;2022-09-09T07:33:43;11.98;;;4.70;;
34876;SDS011;21086;44.780;17.194;2022-09-09T07:36:24;7.85;;;3.88;;
34876;SDS011;21086;44.780;17.194;2022-09-09T07:38:59;7.60;;;3.75;;
34876;SDS011;21086;44.780;17.194;2022-09-09T07:41:32;11.25;;;5.13;;
34876;SDS011;21086;44.780;17.194;2022-09-09T07:44:04;8.52;;;4.55;;
34876;SDS011;21086;44.780;17.194;2022-09-09T07:46:33;9.25;;;4.85;;
34876;SDS011;21086;44.780;17.194;2022-09-09T07:49:00;11.43;;;7.68;;
34876;SDS011;21086;44.780;17.194;2022-09-09T07:51:29;7.53;;;4.32;;
34876;SDS011;21086;44.780;17.194;2022-09-09T07:53:59;5.93;;;3.63;;
34876;SDS011;21086;44.780;17.194;2022-09-09T07:56:29;9.65;;;5.22;;
34876;SDS011;21086;44.780;17.194;2022-09-09T07:58:59;13.13;;;7.53;;
34876;SDS011;21086;44.780;17.194;2022-09-09T08:01:30;12.88;;;5.97;;
34876;SDS011;21086;44.780;17.194;2022-09-09T08:04:03;9.05;;;3.25;;
34876;SDS011;21086;44.780;17.194;2022-09-09T08:06:32;8.85;;;7.93;;
34876;SDS011;21086;44.780;17.194;2022-09-09T08:09:03;8.40;;;5.15;;
34876;SDS011;21086;44.780;17.194;2022-09-09T08:11:31;10.95;;;5.78;;
34876;SDS011;21086;44.780;17.194;2022-09-09T08:14:05;11.68;;;7.05;;
34876;SDS011;21086;44.780;17.194;2022-09-09T08:16:37;27.02;;;4.95;;
34876;SDS011;21086;44.780;17.194;2022-09-09T08:19:06;7.97;;;4.57;;
34876;SDS011;21086;44.780;17.194;2022-09-09T08:21:34;4.60;;;3.50;;
34876;SDS011;21086;44.780;17.194;2022-09-09T08:24:04;11.68;;;7.10;;
34876;SDS011;21086;44.780;17.194;2022-09-09T08:26:35;8.23;;;3.30;;
34876;SDS011;21086;44.780;17.194;2022-09-09T08:29:05;11.50;;;4.88;;
34876;SDS011;21086;44.780;17.194;2022-09-09T08:31:37;6.47;;;3.38;;
34876;SDS011;21086;44.780;17.194;2022-09-09T08:34:10;6.18;;;3.63;;
34876;SDS011;21086;44.780;17.194;2022-09-09T08:36:39;6.93;;;4.55;;
34876;SDS011;21086;44.780;17.194;2022-09-09T08:39:09;6.32;;;4.35;;
34876;SDS011;21086;44.780;17.194;2022-09-09T08:47:09;8.93;;;3.40;;
34876;SDS011;21086;44.780;17.194;2022-09-09T08:52:52;6.80;;;3.80;;
34876;SDS011;21086;44.780;17.194;2022-09-09T08:55:39;8.10;;;3.03;;
34876;SDS011;21086;44.780;17.194;2022-09-09T08:58:19;8.52;;;5.47;;
34876;SDS011;21086;44.780;17.194;2022-09-09T09:10:35;13.27;;;3.17;;
34876;SDS011;21086;44.780;17.194;2022-09-09T09:12:55;4.82;;;3.20;;
34876;SDS011;21086;44.780;17.194;2022-09-09T09:15:25;8.75;;;3.00;;
34876;SDS011;21086;44.780;17.194;2022-09-09T09:17:58;6.63;;;3.10;;
34876;SDS011;21086;44.780;17.194;2022-09-09T09:20:29;6.72;;;3.35;;
34876;SDS011;21086;44.780;17.194;2022-09-09T09:23:21;5.68;;;2.92;;
34876;SDS011;21086;44.780;17.194;2022-09-09T09:25:50;5.25;;;2.90;;
34876;SDS011;21086;44.780;17.194;2022-09-09T09:28:24;9.10;;;3.33;;
34876;SDS011;21086;44.780;17.194;2022-09-09T09:30:57;5.00;;;3.08;;
34876;SDS011;21086;44.780;17.194;2022-09-09T09:36:07;8.27;;;3.53;;
34876;SDS011;21086;44.780;17.194;2022-09-09T09:38:35;5.20;;;2.50;;
34876;SDS011;21086;44.780;17.194;2022-09-09T09:41:44;6.38;;;2.50;;
34876;SDS011;21086;44.780;17.194;2022-09-09T09:44:23;4.47;;;2.17;;
34876;SDS011;21086;44.780;17.194;2022-09-09T09:46:51;3.83;;;2.13;;
34876;SDS011;21086;44.780;17.194;2022-09-09T09:49:18;4.65;;;2.20;;
34876;SDS011;21086;44.780;17.194;2022-09-09T09:51:46;5.72;;;2.40;;
34876;SDS011;21086;44.780;17.194;2022-09-09T09:56:42;4.65;;;2.13;;
34876;SDS011;21086;44.780;17.194;2022-09-09T09:59:23;5.03;;;1.67;;
34876;SDS011;21086;44.780;17.194;2022-09-09T10:04:44;5.18;;;2.00;;
34876;SDS011;21086;44.780;17.194;2022-09-09T10:07:13;5.10;;;2.30;;
34876;SDS011;21086;44.780;17.194;2022-09-09T10:09:54;3.67;;;1.92;;
34876;SDS011;21086;44.780;17.194;2022-09-09T10:12:38;5.53;;;2.17;;
34876;SDS011;21086;44.780;17.194;2022-09-09T10:21:24;4.25;;;2.00;;
34876;SDS011;21086;44.780;17.194;2022-09-09T10:35:14;6.32;;;2.85;;
34876;SDS011;21086;44.780;17.194;2022-09-09T10:40:32;5.47;;;2.30;;
34876;SDS011;21086;44.780;17.194;2022-09-09T10:56:17;8.57;;;1.98;;
34876;SDS011;21086;44.780;17.194;2022-09-09T11:01:19;10.52;;;2.67;;
34876;SDS011;21086;44.780;17.194;2022-09-09T11:06:58;5.93;;;2.55;;
34876;SDS011;21086;44.780;17.194;2022-09-09T11:09:41;3.50;;;1.90;;
34876;SDS011;21086;44.780;17.194;2022-09-09T11:12:15;4.38;;;2.40;;
34876;SDS011;21086;44.780;17.194;2022-09-09T11:14:46;5.82;;;2.00;;
34876;SDS011;21086;44.780;17.194;2022-09-09T11:17:22;4.53;;;2.42;;
34876;SDS011;21086;44.780;17.194;2022-09-09T11:19:56;4.20;;;2.05;;
34876;SDS011;21086;44.780;17.194;2022-09-09T11:22:31;4.82;;;2.17;;
34876;SDS011;21086;44.780;17.194;2022-09-09T11:27:56;4.57;;;3.10;;
34876;SDS011;21086;44.780;17.194;2022-09-09T11:41:45;2.95;;;1.55;;
34876;SDS011;21086;44.780;17.194;2022-09-09T11:44:17;4.13;;;1.83;;
34876;SDS011;21086;44.780;17.194;2022-09-09T11:46:50;6.40;;;1.63;;
34876;SDS011;21086;44.780;17.194;2022-09-09T11:49:25;3.00;;;1.30;;
34876;SDS011;21086;44.780;17.194;2022-09-09T11:57:59;2.85;;;1.67;;
34876;SDS011;21086;44.780;17.194;2022-09-09T12:00:38;3.47;;;1.08;;
34876;SDS011;21086;44.780;17.194;2022-09-09T12:06:17;4.93;;;2.00;;
34876;SDS011;21086;44.780;17.194;2022-09-09T12:08:51;3.28;;;1.30;;
34876;SDS011;21086;44.780;17.194;2022-09-09T12:11:28;2.90;;;1.00;;
34876;SDS011;21086;44.780;17.194;2022-09-09T12:13:58;2.40;;;1.30;;
34876;SDS011;21086;44.780;17.194;2022-09-09T12:16:33;3.10;;;1.00;;
34876;SDS011;21086;44.780;17.194;2022-09-09T12:19:05;3.15;;;1.38;;
34876;SDS011;21086;44.780;17.194;2022-09-09T12:24:37;1.70;;;1.23;;
34876;SDS011;21086;44.780;17.194;2022-09-09T12:27:20;4.05;;;2.00;;
34876;SDS011;21086;44.780;17.194;2022-09-09T12:30:02;4.50;;;3.13;;
34876;SDS011;21086;44.780;17.194;2022-09-09T12:32:35;2.08;;;1.08;;
34876;SDS011;21086;44.780;17.194;2022-09-09T12:35:03;3.63;;;1.40;;
34876;SDS011;21086;44.780;17.194;2022-09-09T12:37:38;3.33;;;1.73;;
34876;SDS011;21086;44.780;17.194;2022-09-09T12:40:19;2.92;;;1.63;;
34876;SDS011;21086;44.780;17.194;2022-09-09T12:42:54;3.85;;;2.50;;
34876;SDS011;21086;44.780;17.194;2022-09-09T12:45:23;4.10;;;2.13;;
34876;SDS011;21086;44.780;17.194;2022-09-09T12:47:53;4.22;;;2.33;;
34876;SDS011;21086;44.780;17.194;2022-09-09T12:50:30;3.40;;;1.88;;
34876;SDS011;21086;44.780;17.194;2022-09-09T12:55:52;5.30;;;3.17;;
34876;SDS011;21086;44.780;17.194;2022-09-09T12:58:25;5.80;;;2.15;;
34876;SDS011;21086;44.780;17.194;2022-09-09T13:00:55;5.13;;;1.75;;
34876;SDS011;21086;44.780;17.194;2022-09-09T13:03:24;2.45;;;1.38;;
34876;SDS011;21086;44.780;17.194;2022-09-09T13:05:51;3.85;;;1.65;;
34876;SDS011;21086;44.780;17.194;2022-09-09T13:08:20;3.45;;;1.90;;
34876;SDS011;21086;44.780;17.194;2022-09-09T13:10:48;8.27;;;2.40;;
34876;SDS011;21086;44.780;17.194;2022-09-09T13:13:29;5.63;;;2.08;;
34876;SDS011;21086;44.780;17.194;2022-09-09T13:16:01;4.35;;;2.15;;
34876;SDS011;21086;44.780;17.194;2022-09-09T13:18:31;5.28;;;1.83;;
34876;SDS011;21086;44.780;17.194;2022-09-09T13:21:02;5.72;;;2.97;;
34876;SDS011;21086;44.780;17.194;2022-09-09T13:23:30;7.47;;;1.80;;
34876;SDS011;21086;44.780;17.194;2022-09-09T13:26:20;10.70;;;3.58;;
34876;SDS011;21086;44.780;17.194;2022-09-09T13:28:49;4.25;;;2.05;;
34876;SDS011;21086;44.780;17.194;2022-09-09T13:31:24;2.42;;;1.30;;
34876;SDS011;21086;44.780;17.194;2022-09-09T13:33:55;7.18;;;1.42;;
34876;SDS011;21086;44.780;17.194;2022-09-09T13:36:32;2.83;;;1.35;;
34876;SDS011;21086;44.780;17.194;2022-09-09T13:39:02;2.75;;;1.45;;
34876;SDS011;21086;44.780;17.194;2022-09-09T13:41:32;3.40;;;1.40;;
34876;SDS011;21086;44.780;17.194;2022-09-09T13:44:01;3.58;;;1.80;;
34876;SDS011;21086;44.780;17.194;2022-09-09T13:46:32;4.18;;;1.88;;
34876;SDS011;21086;44.780;17.194;2022-09-09T13:51:44;4.47;;;1.80;;
34876;SDS011;21086;44.780;17.194;2022-09-09T13:54:14;5.13;;;2.95;;
34876;SDS011;21086;44.780;17.194;2022-09-09T13:56:42;4.53;;;2.00;;
34876;SDS011;21086;44.780;17.194;2022-09-09T13:59:11;5.88;;;1.83;;
34876;SDS011;21086;44.780;17.194;2022-09-09T14:01:39;5.13;;;2.63;;
34876;SDS011;21086;44.780;17.194;2022-09-09T14:04:07;3.65;;;1.85;;
34876;SDS011;21086;44.780;17.194;2022-09-09T14:06:35;4.95;;;2.15;;
34876;SDS011;21086;44.780;17.194;2022-09-09T14:09:05;4.80;;;2.30;;
34876;SDS011;21086;44.780;17.194;2022-09-09T14:11:33;6.13;;;1.77;;
34876;SDS011;21086;44.780;17.194;2022-09-09T14:14:00;4.20;;;1.85;;
34876;SDS011;21086;44.780;17.194;2022-09-09T14:16:27;5.32;;;2.10;;
34876;SDS011;21086;44.780;17.194;2022-09-09T14:18:54;7.38;;;2.60;;
34876;SDS011;21086;44.780;17.194;2022-09-09T14:21:23;5.53;;;3.00;;
34876;SDS011;21086;44.780;17.194;2022-09-09T14:23:50;4.80;;;2.83;;
34876;SDS011;21086;44.780;17.194;2022-09-09T14:26:19;6.53;;;2.30;;
34876;SDS011;21086;44.780;17.194;2022-09-09T14:28:47;5.15;;;2.42;;
34876;SDS011;21086;44.780;17.194;2022-09-09T14:31:23;3.60;;;1.80;;
34876;SDS011;21086;44.780;17.194;2022-09-09T14:33:51;9.18;;;2.35;;
34876;SDS011;21086;44.780;17.194;2022-09-09T14:36:18;4.63;;;2.00;;
34876;SDS011;21086;44.780;17.194;2022-09-09T14:38:46;5.43;;;2.10;;
34876;SDS011;21086;44.780;17.194;2022-09-09T14:41:15;5.78;;;2.28;;
34876;SDS011;21086;44.780;17.194;2022-09-09T14:43:43;7.20;;;2.30;;
34876;SDS011;21086;44.780;17.194;2022-09-09T14:46:12;5.65;;;2.20;;
34876;SDS011;21086;44.780;17.194;2022-09-09T14:48:43;6.10;;;1.95;;
34876;SDS011;21086;44.780;17.194;2022-09-09T14:51:12;3.25;;;2.05;;
34876;SDS011;21086;44.780;17.194;2022-09-09T14:53:58;4.32;;;2.45;;
34876;SDS011;21086;44.780;17.194;2022-09-09T14:56:26;4.20;;;1.95;;
34876;SDS011;21086;44.780;17.194;2022-09-09T14:58:56;3.40;;;1.73;;
34876;SDS011;21086;44.780;17.194;2022-09-09T15:01:24;3.67;;;1.20;;
34876;SDS011;21086;44.780;17.194;2022-09-09T15:03:56;3.25;;;1.20;;
34876;SDS011;21086;44.780;17.194;2022-09-09T15:06:25;2.78;;;0.90;;
34876;SDS011;21086;44.780;17.194;2022-09-09T15:08:54;1.30;;;0.90;;
34876;SDS011;21086;44.780;17.194;2022-09-09T15:11:25;1.90;;;1.10;;
34876;SDS011;21086;44.780;17.194;2022-09-09T15:13:54;4.15;;;1.20;;
34876;SDS011;21086;44.780;17.194;2022-09-09T15:16:21;4.50;;;2.78;;
34876;SDS011;21086;44.780;17.194;2022-09-09T15:18:51;5.75;;;1.75;;
34876;SDS011;21086;44.780;17.194;2022-09-09T15:21:21;2.17;;;1.20;;
34876;SDS011;21086;44.780;17.194;2022-09-09T15:23:49;4.38;;;1.48;;
34876;SDS011;21086;44.780;17.194;2022-09-09T15:26:17;3.10;;;2.00;;
34876;SDS011;21086;44.780;17.194;2022-09-09T15:28:44;1.70;;;1.10;;
34876;SDS011;21086;44.780;17.194;2022-09-09T15:31:14;1.83;;;0.85;;
34876;SDS011;21086;44.780;17.194;2022-09-09T15:33:51;2.72;;;1.65;;
34876;SDS011;21086;44.780;17.194;2022-09-09T15:36:23;3.78;;;1.55;;
34876;SDS011;21086;44.780;17.194;2022-09-09T15:38:52;3.72;;;0.90;;
34876;SDS011;21086;44.780;17.194;2022-09-09T15:41:20;2.00;;;1.40;;
34876;SDS011;21086;44.780;17.194;2022-09-09T15:43:49;2.10;;;0.77;;
34876;SDS011;21086;44.780;17.194;2022-09-09T15:48:50;3.75;;;1.13;;
34876;SDS011;21086;44.780;17.194;2022-09-09T15:51:20;2.58;;;1.30;;
34876;SDS011;21086;44.780;17.194;2022-09-09T15:54:07;2.30;;;0.82;;
34876;SDS011;21086;44.780;17.194;2022-09-09T15:56:35;0.88;;;0.57;;
34876;SDS011;21086;44.780;17.194;2022-09-09T15:59:02;2.65;;;0.85;;
34876;SDS011;21086;44.780;17.194;2022-09-09T16:01:30;3.10;;;0.50;;
34876;SDS011;21086;44.780;17.194;2022-09-09T16:03:58;2.67;;;1.10;;
34876;SDS011;21086;44.780;17.194;2022-09-09T16:06:27;2.33;;;0.80;;
34876;SDS011;21086;44.780;17.194;2022-09-09T16:08:55;2.17;;;0.43;;
34876;SDS011;21086;44.780;17.194;2022-09-09T16:11:25;2.85;;;0.68;;
34876;SDS011;21086;44.780;17.194;2022-09-09T16:13:57;2.15;;;0.82;;
34876;SDS011;21086;44.780;17.194;2022-09-09T16:16:26;2.25;;;1.08;;
34876;SDS011;21086;44.780;17.194;2022-09-09T16:18:55;0.98;;;0.85;;
34876;SDS011;21086;44.780;17.194;2022-09-09T16:21:24;2.17;;;1.27;;
34876;SDS011;21086;44.780;17.194;2022-09-09T16:23:56;2.58;;;1.20;;
34876;SDS011;21086;44.780;17.194;2022-09-09T16:26:29;3.42;;;1.70;;
34876;SDS011;21086;44.780;17.194;2022-09-09T16:28:57;2.53;;;1.63;;
34876;SDS011;21086;44.780;17.194;2022-09-09T16:31:25;3.88;;;2.30;;
34876;SDS011;21086;44.780;17.194;2022-09-09T16:33:53;5.35;;;2.50;;
34876;SDS011;21086;44.780;17.194;2022-09-09T16:36:23;3.78;;;2.25;;
34876;SDS011;21086;44.780;17.194;2022-09-09T16:38:57;2.72;;;1.42;;
34876;SDS011;21086;44.780;17.194;2022-09-09T16:41:25;7.88;;;2.80;;
34876;SDS011;21086;44.780;17.194;2022-09-09T16:43:54;2.85;;;1.80;;
34876;SDS011;21086;44.780;17.194;2022-09-09T16:46:25;3.35;;;1.23;;
34876;SDS011;21086;44.780;17.194;2022-09-09T16:48:55;3.05;;;1.40;;
34876;SDS011;21086;44.780;17.194;2022-09-09T16:51:25;3.72;;;2.85;;
34876;SDS011;21086;44.780;17.194;2022-09-09T16:54:01;2.80;;;1.35;;
34876;SDS011;21086;44.780;17.194;2022-09-09T16:56:30;1.63;;;0.90;;
34876;SDS011;21086;44.780;17.194;2022-09-09T16:59:01;1.88;;;0.98;;
34876;SDS011;21086;44.780;17.194;2022-09-09T17:01:31;2.15;;;1.40;;
34876;SDS011;21086;44.780;17.194;2022-09-09T17:04:05;5.78;;;1.90;;
34876;SDS011;21086;44.780;17.194;2022-09-09T17:06:34;4.68;;;1.90;;
34876;SDS011;21086;44.780;17.194;2022-09-09T17:09:04;7.45;;;1.40;;
34876;SDS011;21086;44.780;17.194;2022-09-09T17:11:34;5.13;;;1.35;;
34876;SDS011;21086;44.780;17.194;2022-09-09T17:14:02;2.58;;;1.73;;
34876;SDS011;21086;44.780;17.194;2022-09-09T17:16:30;2.90;;;1.27;;
34876;SDS011;21086;44.780;17.194;2022-09-09T17:18:58;4.90;;;1.75;;
34876;SDS011;21086;44.780;17.194;2022-09-09T17:21:25;4.60;;;2.08;;
34876;SDS011;21086;44.780;17.194;2022-09-09T17:23:54;4.43;;;1.90;;